Time;durP1;ratioP1;P1;durP2;ratioP2;P2;SDS_P1;SDS_P2;PMS_P1;PMS_P2;Temp;Humidity;BMP_temperature;BMP_pressure;BME280_temperature;BME280_humidity;BME280_pressure;Samples;Min_cycle;Max_cycle;Signal;HPM_P1;HPM_P2
2024/01/23 00:00:11;;;;;;;31.45;19.35;;;;;;;;;;5073932;28;20278;-52
2024/01/23 00:02:37;;;;;;;33.80;21.45;;;;;;;;;;5074485;28;20040;-51
2024/01/23 00:05:03;;;;;;;31.23;21.17;;;;;;;;;;5074191;28;20078;-53
2024/01/23 00:07:30;;;;;;;30.23;19.88;;;;;;;;;;5074356;28;20352;-50
2024/01/23 00:09:56;;;;;;;28.75;19.52;;;;;;;;;;5074015;28;20075;-53
2024/01/23 00:12:22;;;;;;;38.28;22.80;;;;;;;;;;5074172;28;20024;-49
2024/01/23 00:14:48;;;;;;;33.85;19.40;;;;;;;;;;5073803;28;20016;-50
2024/01/23 00:17:15;;;;;;;27.80;19.57;;;;;;;;;;5072413;28;20032;-50
2024/01/23 00:19:42;;;;;;;32.13;19.73;;;;;;;;;;5073972;28;20460;-50
2024/01/23 00:22:08;;;;;;;30.47;19.00;;;;;;;;;;5072753;28;20032;-49
2024/01/23 00:24:34;;;;;;;34.63;20.92;;;;;;;;;;5073682;28;20025;-49
2024/01/23 00:27:00;;;;;;;31.65;21.27;;;;;;;;;;5073795;28;20028;-50
2024/01/23 00:29:26;;;;;;;31.88;20.85;;;;;;;;;;5074062;28;20020;-49
2024/01/23 00:31:52;;;;;;;31.13;20.30;;;;;;;;;;5060789;28;20513;-49
2024/01/23 00:34:19;;;;;;;32.65;22.10;;;;;;;;;;5072990;28;20376;-49
2024/01/23 00:36:45;;;;;;;35.08;21.35;;;;;;;;;;5072406;28;20043;-49
2024/01/23 00:39:11;;;;;;;30.15;21.70;;;;;;;;;;5073338;28;20052;-50
2024/01/23 00:41:38;;;;;;;35.80;20.13;;;;;;;;;;5081777;28;20506;-49
2024/01/23 00:44:05;;;;;;;30.13;21.45;;;;;;;;;;5073824;28;20040;-50
2024/01/23 00:46:31;;;;;;;33.33;22.13;;;;;;;;;;5073416;28;20054;-49
2024/01/23 00:48:57;;;;;;;33.55;21.05;;;;;;;;;;5073491;28;20047;-49
2024/01/23 00:51:23;;;;;;;32.67;21.75;;;;;;;;;;5073235;28;20445;-51
2024/01/23 00:53:50;;;;;;;35.80;22.57;;;;;;;;;;5073029;28;20055;-51
2024/01/23 00:56:16;;;;;;;33.90;23.55;;;;;;;;;;5072250;28;20086;-50
2024/01/23 00:58:42;;;;;;;33.55;22.27;;;;;;;;;;5072881;28;20036;-51
2024/01/23 01:01:08;;;;;;;32.07;22.50;;;;;;;;;;5073495;28;20094;-51
2024/01/23 01:03:34;;;;;;;35.35;22.73;;;;;;;;;;5081251;28;20043;-51
2024/01/23 01:06:01;;;;;;;34.70;22.67;;;;;;;;;;5073115;28;20016;-49
2024/01/23 01:08:27;;;;;;;34.00;22.45;;;;;;;;;;5072970;28;20162;-49
2024/01/23 01:10:53;;;;;;;35.03;24.00;;;;;;;;;;5072874;28;20031;-51
2024/01/23 01:13:19;;;;;;;37.88;23.45;;;;;;;;;;5071681;28;20029;-50
2024/01/23 01:15:45;;;;;;;36.00;22.90;;;;;;;;;;5072672;28;20418;-49
2024/01/23 01:18:12;;;;;;;34.80;23.15;;;;;;;;;;5072854;28;20025;-49
2024/01/23 01:20:38;;;;;;;37.90;27.42;;;;;;;;;;5072321;28;20039;-49
2024/01/23 01:23:04;;;;;;;33.60;23.38;;;;;;;;;;5072948;28;20514;-49
2024/01/23 01:25:30;;;;;;;37.90;24.50;;;;;;;;;;5072276;28;20359;-50
2024/01/23 01:27:59;;;;;;;35.63;23.40;;;;;;;;;;5072393;28;20012;-50
2024/01/23 01:30:28;;;;;;;36.15;26.33;;;;;;;;;;5072345;28;20060;-50
2024/01/23 01:32:57;;;;;;;36.47;24.58;;;;;;;;;;5072618;28;20020;-49
2024/01/23 01:35:23;;;;;;;35.35;25.50;;;;;;;;;;5071053;28;20498;-49
2024/01/23 01:37:49;;;;;;;32.00;24.40;;;;;;;;;;5072094;28;20049;-49
2024/01/23 01:40:15;;;;;;;37.83;24.48;;;;;;;;;;5072207;28;20055;-52
2024/01/23 01:42:42;;;;;;;35.03;23.10;;;;;;;;;;5072534;28;20035;-51
2024/01/23 01:45:10;;;;;;;51.60;22.77;;;;;;;;;;5082898;28;20048;-49
2024/01/23 01:47:36;;;;;;;42.72;23.70;;;;;;;;;;5071696;28;20044;-50
2024/01/23 01:50:03;;;;;;;33.08;22.70;;;;;;;;;;5072459;28;20028;-50
2024/01/23 01:52:30;;;;;;;34.83;22.70;;;;;;;;;;5072296;28;20040;-49
2024/01/23 01:54:56;;;;;;;;;;;;;;;;;;5072520;28;20739;-49
2024/01/23 01:57:22;;;;;;;34.80;24.17;;;;;;;;;;5072233;28;20003;-49
2024/01/23 01:59:51;;;;;;;35.78;24.13;;;;;;;;;;5072288;28;20047;-50
2024/01/23 02:02:17;;;;;;;35.33;23.23;;;;;;;;;;5072144;28;20032;-52
2024/01/23 02:04:45;;;;;;;35.72;24.63;;;;;;;;;;5070792;28;20025;-52
2024/01/23 02:07:11;;;;;;;40.63;25.55;;;;;;;;;;5070647;28;20508;-51
2024/01/23 02:09:38;;;;;;;41.58;26.98;;;;;;;;;;5072022;28;20028;-51
2024/01/23 02:12:06;;;;;;;;;;;;;;;;;;5071337;28;20032;-50
2024/01/23 02:14:33;;;;;;;40.50;24.02;;;;;;;;;;5070583;28;19909;-49
2024/01/23 02:16:59;;;;;;;38.90;23.52;;;;;;;;;;5071852;28;20058;-52
2024/01/23 02:19:28;;;;;;;32.45;22.58;;;;;;;;;;5071891;28;20056;-49
2024/01/23 02:21:55;;;;;;;35.13;22.75;;;;;;;;;;5071804;28;20501;-50
2024/01/23 02:24:21;;;;;;;34.08;23.95;;;;;;;;;;5071672;28;20442;-49
2024/01/23 02:26:47;;;;;;;36.67;24.40;;;;;;;;;;5071817;28;20151;-50
2024/01/23 02:29:15;;;;;;;38.60;23.55;;;;;;;;;;5071749;28;20067;-49
2024/01/23 02:31:42;;;;;;;35.90;25.27;;;;;;;;;;5070524;28;20048;-49
2024/01/23 02:34:08;;;;;;;37.88;24.27;;;;;;;;;;5070262;28;20036;-49
2024/01/23 02:36:39;;;;;;;37.47;23.07;;;;;;;;;;5071733;28;20122;-51
2024/01/23 02:39:06;;;;;;;35.63;24.60;;;;;;;;;;5071526;28;20400;-51
2024/01/23 02:41:32;;;;;;;34.22;23.63;;;;;;;;;;5070426;28;20028;-52
2024/01/23 02:43:59;;;;;;;41.27;26.97;;;;;;;;;;5071222;28;20103;-54
2024/01/23 02:46:25;;;;;;;34.20;23.25;;;;;;;;;;5071122;28;20298;-49
2024/01/23 02:48:51;;;;;;;36.03;23.75;;;;;;;;;;5071091;28;20059;-49
2024/01/23 02:51:20;;;;;;;39.20;23.17;;;;;;;;;;5071235;28;20028;-49
2024/01/23 02:53:47;;;;;;;35.08;23.20;;;;;;;;;;5071333;28;20107;-51
2024/01/23 02:56:13;;;;;;;36.72;23.40;;;;;;;;;;5070304;28;20032;-51
2024/01/23 02:58:39;;;;;;;33.93;22.70;;;;;;;;;;5071281;28;20028;-51
2024/01/23 03:01:05;;;;;;;34.15;21.02;;;;;;;;;;5071973;28;20475;-50
2024/01/23 03:03:32;;;;;;;32.75;20.90;;;;;;;;;;5071194;28;20100;-51
2024/01/23 03:05:58;;;;;;;37.83;24.38;;;;;;;;;;5071291;28;20037;-50
2024/01/23 03:08:24;;;;;;;32.47;19.38;;;;;;;;;;5071296;28;20475;-51
2024/01/23 03:10:50;;;;;;;32.42;18.50;;;;;;;;;;5071332;28;20020;-52
2024/01/23 03:13:16;;;;;;;29.73;18.38;;;;;;;;;;5070338;28;20060;-49
2024/01/23 03:15:43;;;;;;;29.85;18.13;;;;;;;;;;5071034;28;20571;-50
2024/01/23 03:18:09;;;;;;;29.27;19.73;;;;;;;;;;5071118;28;20040;-53
2024/01/23 03:20:35;;;;;;;32.72;19.38;;;;;;;;;;5071103;28;20028;-50
2024/01/23 03:23:01;;;;;;;36.03;20.73;;;;;;;;;;5071295;28;20032;-51
2024/01/23 03:25:27;;;;;;;27.70;17.85;;;;;;;;;;5070964;28;20402;-50
2024/01/23 03:27:53;;;;;;;27.35;17.50;;;;;;;;;;5068946;28;20028;-50
2024/01/23 03:30:32;;;;;;;30.38;17.95;;;;;;;;;;5069889;28;20032;-50
2024/01/23 03:33:00;;;;;;;28.92;18.02;;;;;;;;;;5070978;28;20032;-51
2024/01/23 03:35:26;;;;;;;32.65;18.60;;;;;;;;;;5069561;28;20086;-50
2024/01/23 03:37:52;;;;;;;26.63;17.17;;;;;;;;;;5071054;28;20078;-50
2024/01/23 03:40:19;;;;;;;31.30;18.88;;;;;;;;;;5069790;28;20637;-51
2024/01/23 03:42:45;;;;;;;32.83;16.80;;;;;;;;;;5070909;28;20077;-52
2024/01/23 03:45:11;;;;;;;24.17;15.95;;;;;;;;;;5070722;28;20027;-52
2024/01/23 03:47:38;;;;;;;25.17;15.27;;;;;;;;;;5070763;28;20082;-51
2024/01/23 03:50:04;;;;;;;25.20;15.57;;;;;;;;;;5069876;28;20500;-49
2024/01/23 03:52:31;;;;;;;27.30;16.03;;;;;;;;;;5075079;28;20028;-53
2024/01/23 03:54:57;;;;;;;29.33;15.75;;;;;;;;;;5070269;28;20340;-49
2024/01/23 03:57:23;;;;;;;29.10;16.13;;;;;;;;;;5069352;28;20037;-49
2024/01/23 03:59:50;;;;;;;26.33;16.92;;;;;;;;;;5069281;28;20029;-50
2024/01/23 04:02:16;;;;;;;26.48;16.25;;;;;;;;;;5070267;28;20025;-52
2024/01/23 04:04:43;;;;;;;23.48;15.55;;;;;;;;;;5069224;28;20454;-49
2024/01/23 04:07:09;;;;;;;23.23;14.67;;;;;;;;;;5069457;28;20036;-52
2024/01/23 04:09:35;;;;;;;27.60;16.25;;;;;;;;;;5070165;28;20482;-49
2024/01/23 04:12:01;;;;;;;22.85;15.32;;;;;;;;;;5074157;28;20101;-50
2024/01/23 04:14:27;;;;;;;24.67;15.07;;;;;;;;;;5073437;28;20028;-50
2024/01/23 04:16:53;;;;;;;27.48;14.82;;;;;;;;;;5072891;28;20037;-53
2024/01/23 04:19:20;;;;;;;27.00;15.93;;;;;;;;;;5074062;28;20078;-49
2024/01/23 04:21:46;;;;;;;29.00;17.38;;;;;;;;;;5074099;28;20028;-52
2024/01/23 04:24:12;;;;;;;25.15;15.95;;;;;;;;;;5072707;28;20111;-52
2024/01/23 04:26:44;;;;;;;27.48;17.25;;;;;;;;;;5074260;28;20081;-53
2024/01/23 04:29:11;;;;;;;28.75;16.52;;;;;;;;;;5073999;28;20452;-52
2024/01/23 04:31:37;;;;;;;;;;;;;;;;;;5082629;28;20033;-53
2024/01/23 04:34:03;;;;;;;28.00;15.63;;;;;;;;;;5073582;28;19915;-53
2024/01/23 04:36:29;;;;;;;25.63;15.10;;;;;;;;;;5072515;28;20024;-53
2024/01/23 04:38:56;;;;;;;23.48;15.50;;;;;;;;;;5085545;28;20028;-51
2024/01/23 04:41:26;;;;;;;28.63;16.37;;;;;;;;;;5073306;28;20042;-51
2024/01/23 04:43:52;;;;;;;26.30;15.35;;;;;;;;;;5073499;28;20518;-51
2024/01/23 04:46:18;;;;;;;28.45;17.58;;;;;;;;;;5073285;28;20036;-51
2024/01/23 04:48:46;;;;;;;25.03;15.63;;;;;;;;;;5065881;22;20053;-46
2024/01/23 04:51:13;;;;;;;27.90;17.17;;;;;;;;;;5032906;28;20083;-48
2024/01/23 04:53:39;;;;;;;25.50;16.00;;;;;;;;;;5033184;28;20036;-53
2024/01/23 04:56:05;;;;;;;31.88;18.55;;;;;;;;;;5033425;28;20018;-53
2024/01/23 04:58:31;;;;;;;41.05;21.30;;;;;;;;;;5030207;28;20478;-49
2024/01/23 05:00:58;;;;;;;56.90;29.27;;;;;;;;;;5053505;28;20100;-51
2024/01/23 05:03:24;;;;;;;73.13;34.00;;;;;;;;;;5053443;28;20356;-58
2024/01/23 05:05:50;;;;;;;84.90;41.85;;;;;;;;;;5053351;28;20064;-50
2024/01/23 05:08:17;;;;;;;90.27;44.27;;;;;;;;;;5053252;28;20029;-52
2024/01/23 05:10:44;;;;;;;64.22;33.03;;;;;;;;;;5053177;28;20499;-50
2024/01/23 05:13:10;;;;;;;45.03;25.58;;;;;;;;;;5035328;28;20150;-49
2024/01/23 05:15:37;;;;;;;38.00;22.77;;;;;;;;;;5053026;28;20052;-49
2024/01/23 05:18:06;;;;;;;29.80;19.70;;;;;;;;;;5051819;28;20360;-50
2024/01/23 05:20:33;;;;;;;31.52;18.38;;;;;;;;;;5052207;28;20036;-48
2024/01/23 05:22:59;;;;;;;20.30;12.48;;;;;;;;;;5052578;28;20403;-53
2024/01/23 05:25:25;;;;;;;29.48;18.55;;;;;;;;;;5052766;28;20028;-52
2024/01/23 05:27:51;;;;;;;29.50;16.83;;;;;;;;;;5052881;28;20021;-51
2024/01/23 05:30:18;;;;;;;31.75;16.63;;;;;;;;;;5053028;28;20050;-51
2024/01/23 05:32:44;;;;;;;34.03;20.60;;;;;;;;;;5052813;28;20025;-50
2024/01/23 05:35:10;;;;;;;28.17;17.90;;;;;;;;;;5052644;28;20067;-50
2024/01/23 05:37:37;;;;;;;28.73;19.27;;;;;;;;;;5052748;28;20087;-49
2024/01/23 05:40:04;;;;;;;31.80;17.73;;;;;;;;;;5052676;28;20029;-51
2024/01/23 05:42:30;;;;;;;30.48;18.40;;;;;;;;;;5052723;28;20025;-50
2024/01/23 05:44:56;;;;;;;33.37;18.10;;;;;;;;;;5052458;28;20449;-51
2024/01/23 05:47:23;;;;;;;25.85;16.77;;;;;;;;;;5052465;28;20039;-51
2024/01/23 05:49:49;;;;;;;28.15;17.65;;;;;;;;;;5052715;28;20505;-49
2024/01/23 05:52:15;;;;;;;27.65;17.20;;;;;;;;;;5052844;28;20025;-51
2024/01/23 05:54:41;;;;;;;24.40;16.38;;;;;;;;;;5052508;28;20021;-54
2024/01/23 05:57:10;;;;;;;25.23;16.80;;;;;;;;;;5034621;28;20043;-48
2024/01/23 05:59:37;;;;;;;27.88;18.30;;;;;;;;;;5052410;28;20028;-51
2024/01/23 06:02:06;;;;;;;26.13;14.53;;;;;;;;;;5052460;28;20521;-49
2024/01/23 06:04:32;;;;;;;29.35;16.23;;;;;;;;;;5052239;28;20318;-49
2024/01/23 06:06:59;;;;;;;32.42;18.73;;;;;;;;;;5051149;28;20029;-49
2024/01/23 06:09:25;;;;;;;31.02;18.83;;;;;;;;;;5050956;28;20037;-49
2024/01/23 06:11:52;;;;;;;27.00;17.20;;;;;;;;;;5052317;28;20454;-50
2024/01/23 06:14:18;;;;;;;36.55;19.25;;;;;;;;;;5050825;28;20226;-53
2024/01/23 06:16:45;;;;;;;30.53;18.87;;;;;;;;;;5052035;28;20060;-50
2024/01/23 06:19:11;;;;;;;29.02;17.92;;;;;;;;;;5051926;28;20033;-49
2024/01/23 06:21:38;;;;;;;35.90;18.07;;;;;;;;;;5052109;28;20025;-51
2024/01/23 06:24:05;;;;;;;37.45;19.80;;;;;;;;;;5051900;28;20025;-53
2024/01/23 06:26:34;;;;;;;27.38;16.92;;;;;;;;;;5017796;28;20124;-49
2024/01/23 06:29:01;;;;;;;32.30;20.08;;;;;;;;;;5033837;28;20086;-54
2024/01/23 06:31:27;;;;;;;27.38;18.85;;;;;;;;;;5034113;28;20036;-51
2024/01/23 06:33:54;;;;;;;30.25;18.00;;;;;;;;;;5051393;28;20040;-51
2024/01/23 06:36:20;;;;;;;30.23;18.75;;;;;;;;;;5033986;28;20419;-56
2024/01/23 06:38:47;;;;;;;35.80;19.52;;;;;;;;;;5051709;28;20033;-55
2024/01/23 06:41:13;;;;;;;31.20;18.40;;;;;;;;;;5034140;28;20029;-57
2024/01/23 06:43:39;;;;;;;34.37;19.17;;;;;;;;;;5051483;28;20079;-53
2024/01/23 06:46:05;;;;;;;31.52;20.60;;;;;;;;;;5033907;28;20270;-49
2024/01/23 06:48:32;;;;;;;27.05;15.85;;;;;;;;;;5033677;28;20043;-51
2024/01/23 06:50:58;;;;;;;31.38;19.10;;;;;;;;;;5051856;28;20033;-50
2024/01/23 06:53:24;;;;;;;35.70;19.67;;;;;;;;;;5051536;28;20487;-55
2024/01/23 06:55:50;;;;;;;34.37;19.47;;;;;;;;;;5051569;28;20025;-57
2024/01/23 06:58:17;;;;;;;32.42;19.00;;;;;;;;;;5051578;28;20029;-52
2024/01/23 07:00:43;;;;;;;30.17;16.85;;;;;;;;;;5033397;28;20067;-53
2024/01/23 07:03:09;;;;;;;28.13;17.58;;;;;;;;;;5051600;28;20537;-52
2024/01/23 07:05:35;;;;;;;28.83;18.57;;;;;;;;;;5051342;28;20025;-51
2024/01/23 07:08:05;;;;;;;32.17;18.95;;;;;;;;;;5051529;28;20053;-52
2024/01/23 07:10:32;;;;;;;54.80;20.92;;;;;;;;;;5051145;28;20032;-52
2024/01/23 07:12:58;;;;;;;30.80;18.50;;;;;;;;;;5051517;28;20399;-51
2024/01/23 07:15:24;;;;;;;33.37;20.00;;;;;;;;;;5051079;28;20171;-51
2024/01/23 07:17:51;;;;;;;29.85;19.58;;;;;;;;;;5033584;28;20480;-54
2024/01/23 07:20:18;;;;;;;34.17;20.33;;;;;;;;;;5051379;28;20029;-52
2024/01/23 07:22:44;;;;;;;38.65;21.88;;;;;;;;;;5051534;28;20377;-51
2024/01/23 07:25:11;;;;;;;33.90;22.87;;;;;;;;;;5033292;28;20033;-49
2024/01/23 07:27:37;;;;;;;35.83;20.08;;;;;;;;;;5033421;28;20313;-50
2024/01/23 07:30:04;;;;;;;37.33;21.08;;;;;;;;;;5051140;28;20021;-52
2024/01/23 07:32:30;;;;;;;35.25;21.48;;;;;;;;;;5017153;28;20029;-50
2024/01/23 07:34:56;;;;;;;40.67;21.55;;;;;;;;;;5051207;28;20501;-48
2024/01/23 07:37:23;;;;;;;35.75;21.55;;;;;;;;;;5051214;28;20090;-51
2024/01/23 07:39:49;;;;;;;36.50;22.83;;;;;;;;;;5050982;28;20041;-55
2024/01/23 07:42:16;;;;;;;33.90;19.88;;;;;;;;;;5051149;28;20091;-49
2024/01/23 07:44:43;;;;;;;39.60;23.02;;;;;;;;;;5052266;28;20170;-52
2024/01/23 07:47:10;;;;;;;33.90;21.23;;;;;;;;;;5054794;28;20714;-49
2024/01/23 07:49:36;;;;;;;33.15;21.55;;;;;;;;;;5020713;28;20495;-51
2024/01/23 07:52:02;;;;;;;34.47;21.70;;;;;;;;;;5037136;28;20047;-53
2024/01/23 07:54:32;;;;;;;35.47;21.30;;;;;;;;;;5054802;28;20533;-51
2024/01/23 07:56:58;;;;;;;32.35;21.52;;;;;;;;;;5054736;28;20079;-53
2024/01/23 07:59:25;;;;;;;31.15;21.25;;;;;;;;;;5036687;28;20041;-51
2024/01/23 08:01:51;;;;;;;34.60;20.43;;;;;;;;;;5037066;28;20025;-49
2024/01/23 08:04:17;;;;;;;33.73;21.43;;;;;;;;;;5054539;28;20028;-51
2024/01/23 08:06:44;;;;;;;33.15;21.33;;;;;;;;;;5036717;28;20619;-49
2024/01/23 08:09:10;;;;;;;32.72;20.90;;;;;;;;;;5054544;28;20025;-50
2024/01/23 08:11:36;;;;;;;32.80;20.93;;;;;;;;;;5054646;28;20443;-52
2024/01/23 08:14:03;;;;;;;30.10;19.92;;;;;;;;;;5054116;28;20268;-51
2024/01/23 08:16:29;;;;;;;33.10;22.38;;;;;;;;;;5054444;28;20167;-49
2024/01/23 08:18:58;;;;;;;34.40;19.88;;;;;;;;;;5036582;28;20033;-49
2024/01/23 08:21:24;;;;;;;34.65;18.98;;;;;;;;;;5054349;28;20035;-54
2024/01/23 08:23:50;;;;;;;33.80;20.27;;;;;;;;;;5054223;28;20407;-55
2024/01/23 08:26:17;;;;;;;30.55;20.45;;;;;;;;;;5054355;28;20060;-53
2024/01/23 08:28:43;;;;;;;35.45;21.10;;;;;;;;;;5054026;28;20475;-52
2024/01/23 08:31:09;;;;;;;30.95;19.67;;;;;;;;;;5054333;28;20025;-51
2024/01/23 08:33:35;;;;;;;34.25;20.10;;;;;;;;;;5054287;28;20399;-53
2024/01/23 08:36:03;;;;;;;29.80;20.30;;;;;;;;;;5054105;28;20082;-52
2024/01/23 08:38:30;;;;;;;35.97;22.33;;;;;;;;;;5036210;28;20029;-53
2024/01/23 08:40:57;;;;;;;32.40;20.02;;;;;;;;;;5036002;28;20507;-52
2024/01/23 08:43:23;;;;;;;31.85;21.08;;;;;;;;;;5036091;28;20036;-53
2024/01/23 08:45:49;;;;;;;37.63;22.83;;;;;;;;;;5053870;28;20055;-52
2024/01/23 08:48:19;;;;;;;36.90;22.30;;;;;;;;;;5053794;28;20025;-51
2024/01/23 08:50:45;;;;;;;29.40;19.92;;;;;;;;;;5053775;28;20064;-51
2024/01/23 08:53:12;;;;;;;39.35;27.95;;;;;;;;;;5053692;28;20065;-49
2024/01/23 08:55:38;;;;;;;31.05;21.35;;;;;;;;;;5053358;28;20448;-49
2024/01/23 08:58:04;;;;;;;35.10;21.52;;;;;;;;;;5053700;28;20403;-51
2024/01/23 09:00:32;;;;;;;31.67;21.67;;;;;;;;;;5053431;28;20036;-52
2024/01/23 09:02:59;;;;;;;31.13;20.33;;;;;;;;;;5053493;28;20075;-49
2024/01/23 09:05:25;;;;;;;31.50;19.58;;;;;;;;;;5053328;28;20017;-49
2024/01/23 09:07:51;;;;;;;32.63;22.45;;;;;;;;;;5035719;28;20029;-52
2024/01/23 09:10:17;;;;;;;34.78;21.80;;;;;;;;;;5035565;28;20033;-51
2024/01/23 09:12:43;;;;;;;35.92;22.52;;;;;;;;;;5053455;28;20056;-56
2024/01/23 09:15:10;;;;;;;32.13;21.88;;;;;;;;;;5035293;28;20037;-53
2024/01/23 09:17:37;;;;;;;33.13;22.60;;;;;;;;;;5051309;28;20115;-54
2024/01/23 09:20:04;;;;;;;36.97;28.45;;;;;;;;;;5053137;28;20094;-52
2024/01/23 09:22:30;;;;;;;38.25;27.90;;;;;;;;;;5053281;28;20029;-51
2024/01/23 09:24:59;;;;;;;34.53;21.15;;;;;;;;;;5035307;28;20025;-50
2024/01/23 09:27:25;;;;;;;30.40;21.33;;;;;;;;;;5053223;28;20570;-49
2024/01/23 09:29:52;;;;;;;35.13;20.38;;;;;;;;;;5035232;28;20040;-50
2024/01/23 09:32:18;;;;;;;33.17;22.17;;;;;;;;;;5035113;28;20079;-50
2024/01/23 09:34:47;;;;;;;32.75;21.30;;;;;;;;;;5035144;28;20388;-52
2024/01/23 09:37:13;;;;;;;34.08;21.48;;;;;;;;;;5035139;28;20041;-49
2024/01/23 09:39:39;;;;;;;31.98;20.38;;;;;;;;;;5052815;28;20087;-49
2024/01/23 09:42:07;;;;;;;31.87;19.37;;;;;;;;;;5035134;28;20029;-53
2024/01/23 09:44:33;;;;;;;;;;;;;;;;;;5035233;28;20086;-49
2024/01/23 09:47:00;;;;;;;31.23;19.77;;;;;;;;;;5052441;28;19942;-51
2024/01/23 09:49:27;;;;;;;36.50;22.23;;;;;;;;;;5034929;28;20033;-50
2024/01/23 09:51:54;;;;;;;31.38;21.60;;;;;;;;;;5052477;28;20040;-53
2024/01/23 09:54:23;;;;;;;35.83;20.77;;;;;;;;;;5052331;28;20028;-48
2024/01/23 09:56:50;;;;;;;35.95;21.02;;;;;;;;;;5052393;28;20044;-49
2024/01/23 09:59:16;;;;;;;33.53;21.58;;;;;;;;;;5052377;28;20460;-53
2024/01/23 10:01:43;;;;;;;31.98;20.92;;;;;;;;;;5052440;28;20060;-50
2024/01/23 10:04:09;;;;;;;;;;;;;;;;;;5052594;28;20422;-48
2024/01/23 10:06:35;;;;;;;31.67;19.77;;;;;;;;;;5051987;28;19912;-48
2024/01/23 10:09:04;;;;;;;32.28;19.55;;;;;;;;;;5051969;28;20086;-48
2024/01/23 10:11:36;;;;;;;29.85;20.63;;;;;;;;;;5052198;28;20060;-50
2024/01/23 10:14:03;;;;;;;34.10;21.30;;;;;;;;;;5034067;28;20529;-50
2024/01/23 10:16:29;;;;;;;32.63;21.33;;;;;;;;;;5052157;28;20063;-51
2024/01/23 10:18:56;;;;;;;36.50;22.48;;;;;;;;;;5051967;28;20491;-49
2024/01/23 10:21:22;;;;;;;32.58;21.65;;;;;;;;;;5052076;28;20021;-50
2024/01/23 10:23:49;;;;;;;34.25;20.42;;;;;;;;;;5051800;28;20033;-55
2024/01/23 10:26:16;;;;;;;32.75;19.67;;;;;;;;;;5034394;28;20075;-53
2024/01/23 10:28:43;;;;;;;;;;;;;;;;;;5052317;28;20063;-55
2024/01/23 10:31:10;;;;;;;37.13;21.25;;;;;;;;;;5052000;28;20439;-48
2024/01/23 10:33:39;;;;;;;31.92;21.38;;;;;;;;;;5033861;28;20037;-50
2024/01/23 10:36:08;;;;;;;32.75;22.40;;;;;;;;;;5052143;28;20036;-51
2024/01/23 10:38:37;;;;;;;33.17;22.17;;;;;;;;;;5051891;28;20407;-51
2024/01/23 10:41:06;;;;;;;32.55;21.27;;;;;;;;;;5033793;28;20072;-52
2024/01/23 10:43:33;;;;;;;31.58;20.17;;;;;;;;;;5051642;28;20029;-50
2024/01/23 10:45:59;;;;;;;;;;;;;;;;;;5052089;28;20033;-50
2024/01/23 10:48:26;;;;;;;33.45;22.33;;;;;;;;;;5034136;28;19913;-50
2024/01/23 10:50:54;;;;;;;32.97;21.58;;;;;;;;;;5051607;28;20064;-50
2024/01/23 10:53:21;;;;;;;;;;;;;;;;;;5052055;28;20029;-50
2024/01/23 10:55:48;;;;;;;33.95;21.95;;;;;;;;;;5051411;28;20297;-54
2024/01/23 10:58:33;;;;;;;50.58;25.95;;;;;;;;;;5051404;28;20048;-53
2024/01/23 11:01:00;;;;;;;40.58;25.75;;;;;;;;;;5033742;28;20040;-51
2024/01/23 11:03:27;;;;;;;33.38;23.23;;;;;;;;;;5051332;28;20112;-50
2024/01/23 11:05:56;;;;;;;36.78;22.70;;;;;;;;;;5051406;28;20096;-51
2024/01/23 11:08:27;;;;;;;34.45;22.17;;;;;;;;;;5051318;28;20480;-52
2024/01/23 11:10:56;;;;;;;40.05;23.45;;;;;;;;;;5033569;28;20074;-52
2024/01/23 11:13:35;;;;;;;30.55;21.00;;;;;;;;;;5051394;28;20033;-53
2024/01/23 11:16:06;;;;;;;31.60;22.50;;;;;;;;;;5051336;28;20033;-52
2024/01/23 11:18:33;;;;;;;34.40;21.63;;;;;;;;;;5052552;28;20063;-51
2024/01/23 11:21:05;;;;;;;29.30;21.15;;;;;;;;;;5055431;28;20083;-50
2024/01/23 11:23:35;;;;;;;34.25;20.77;;;;;;;;;;5055198;28;20108;-49
2024/01/23 11:26:03;;;;;;;36.63;21.90;;;;;;;;;;5055416;28;20078;-50
2024/01/23 11:28:31;;;;;;;29.83;22.20;;;;;;;;;;5055350;28;20091;-49
2024/01/23 11:31:07;;;;;;;29.50;20.40;;;;;;;;;;5055250;28;20102;-49
2024/01/23 11:33:34;;;;;;;32.42;20.60;;;;;;;;;;5055091;28;20029;-52
2024/01/23 11:36:00;;;;;;;;;;;;;;;;;;5037490;28;20102;-53
2024/01/23 11:38:38;;;;;;;27.52;19.65;;;;;;;;;;5054747;28;19931;-54
2024/01/23 11:41:12;;;;;;;32.10;23.65;;;;;;;;;;5066638;28;20104;-53
2024/01/23 11:43:38;;;;;;;29.08;20.38;;;;;;;;;;5054752;28;20029;-54
2024/01/23 11:46:04;;;;;;;33.53;21.73;;;;;;;;;;5054924;28;20025;-54
2024/01/23 11:48:31;;;;;;;33.90;24.33;;;;;;;;;;5054093;28;20036;-50
2024/01/23 11:50:58;;;;;;;33.92;23.38;;;;;;;;;;5018228;28;20087;-49
2024/01/23 11:53:26;;;;;;;40.05;27.38;;;;;;;;;;5055776;28;20024;-55
2024/01/23 11:55:52;;;;;;;38.03;27.77;;;;;;;;;;5028977;28;20060;-49
2024/01/23 11:58:18;;;;;;;41.90;27.47;;;;;;;;;;5052977;28;20097;-51
2024/01/23 12:00:44;;;;;;;34.33;23.60;;;;;;;;;;5052720;28;20033;-49
2024/01/23 12:03:20;;;;;;;38.25;24.48;;;;;;;;;;5035349;28;20043;-49
2024/01/23 12:05:46;;;;;;;34.65;23.73;;;;;;;;;;5052605;28;20037;-51
2024/01/23 12:08:12;;;;;;;32.23;22.17;;;;;;;;;;5052662;28;20033;-51
2024/01/23 12:10:39;;;;;;;33.13;22.45;;;;;;;;;;5052354;28;20340;-53
2024/01/23 12:13:06;;;;;;;28.10;21.05;;;;;;;;;;5052906;28;20031;-51
2024/01/23 12:15:32;;;;;;;43.45;23.90;;;;;;;;;;5050305;28;20226;-51
2024/01/23 12:17:58;;;;;;;34.50;23.70;;;;;;;;;;5052735;28;20040;-50
2024/01/23 12:20:25;;;;;;;32.20;23.33;;;;;;;;;;5052604;28;20041;-51
2024/01/23 12:22:51;;;;;;;43.63;29.77;;;;;;;;;;5052832;28;20021;-49
2024/01/23 12:25:18;;;;;;;35.50;23.53;;;;;;;;;;5046870;28;20021;-52
2024/01/23 12:27:44;;;;;;;33.00;24.23;;;;;;;;;;5019001;28;20422;-52
2024/01/23 12:30:13;;;;;;;40.13;27.05;;;;;;;;;;5051611;28;20041;-51
2024/01/23 12:32:39;;;;;;;36.78;26.92;;;;;;;;;;5034317;28;20082;-51
2024/01/23 12:35:10;;;;;;;39.63;23.35;;;;;;;;;;5034486;28;20037;-50
2024/01/23 12:37:38;;;;;;;38.58;24.48;;;;;;;;;;5034525;28;20037;-49
2024/01/23 12:40:09;;;;;;;42.25;24.50;;;;;;;;;;5052160;28;20082;-49
2024/01/23 12:42:37;;;;;;;35.00;23.77;;;;;;;;;;5052357;28;20033;-53
2024/01/23 12:45:04;;;;;;;27.42;19.52;;;;;;;;;;5051876;28;20056;-53
2024/01/23 12:47:30;;;;;;;27.75;20.13;;;;;;;;;;5052159;28;20051;-52
2024/01/23 12:49:58;;;;;;;24.30;19.25;;;;;;;;;;5051609;28;20033;-52
2024/01/23 12:52:25;;;;;;;30.95;20.25;;;;;;;;;;5033731;28;20490;-51
2024/01/23 12:54:53;;;;;;;29.70;21.17;;;;;;;;;;5016780;28;20029;-52
2024/01/23 12:57:19;;;;;;;24.02;19.77;;;;;;;;;;5034319;28;20111;-49
2024/01/23 12:59:45;;;;;;;27.67;19.83;;;;;;;;;;5051789;28;20025;-49
2024/01/23 13:02:11;;;;;;;27.37;18.37;;;;;;;;;;5033991;28;20029;-48
2024/01/23 13:04:37;;;;;;;31.33;17.42;;;;;;;;;;5052187;28;20031;-54
2024/01/23 13:07:04;;;;;;;25.03;18.87;;;;;;;;;;5051493;28;20134;-52
2024/01/23 13:09:30;;;;;;;23.48;17.30;;;;;;;;;;5051747;28;20108;-49
2024/01/23 13:11:56;;;;;;;18.70;15.57;;;;;;;;;;5050681;28;20025;-49
2024/01/23 13:14:23;;;;;;;25.77;17.02;;;;;;;;;;5049571;28;20025;-49
2024/01/23 13:16:49;;;;;;;26.98;17.75;;;;;;;;;;5033413;28;20029;-52
2024/01/23 13:19:16;;;;;;;22.33;16.90;;;;;;;;;;5033644;28;20037;-57
2024/01/23 13:21:42;;;;;;;24.27;18.10;;;;;;;;;;5051364;28;20025;-54
2024/01/23 13:24:08;;;;;;;23.23;19.53;;;;;;;;;;5051386;28;20267;-53
2024/01/23 13:26:34;;;;;;;21.60;17.93;;;;;;;;;;5033699;28;20496;-52
2024/01/23 13:29:01;;;;;;;28.67;19.93;;;;;;;;;;5051177;28;20259;-52
2024/01/23 13:31:28;;;;;;;23.73;18.60;;;;;;;;;;5051395;28;20379;-50
2024/01/23 13:33:54;;;;;;;;;;;;;;;;;;5051042;28;20243;-50
2024/01/23 13:36:20;;;;;;;24.85;17.73;;;;;;;;;;5033259;28;19912;-54
2024/01/23 13:38:46;;;;;;;24.38;18.95;;;;;;;;;;5051969;28;20024;-53
2024/01/23 13:41:12;;;;;;;24.90;19.77;;;;;;;;;;5050990;28;20051;-54
2024/01/23 13:43:39;;;;;;;27.02;20.95;;;;;;;;;;5034060;28;20022;-53
2024/01/23 13:46:05;;;;;;;20.70;18.50;;;;;;;;;;5033721;28;20071;-53
2024/01/23 13:48:31;;;;;;;27.13;19.07;;;;;;;;;;5034845;28;20475;-49
2024/01/23 13:50:57;;;;;;;25.23;19.57;;;;;;;;;;5052461;28;20268;-49
2024/01/23 13:53:23;;;;;;;22.20;18.90;;;;;;;;;;5051611;28;20287;-52
2024/01/23 13:55:50;;;;;;;22.58;19.27;;;;;;;;;;5051981;28;20483;-51
2024/01/23 13:58:16;;;;;;;20.15;18.05;;;;;;;;;;5052243;28;20025;-50
2024/01/23 14:00:42;;;;;;;21.70;19.17;;;;;;;;;;5052211;28;20032;-49
2024/01/23 14:03:09;;;;;;;24.65;20.75;;;;;;;;;;5052194;28;20021;-51
2024/01/23 14:05:35;;;;;;;29.52;21.60;;;;;;;;;;5051909;28;20072;-51
2024/01/23 14:08:02;;;;;;;26.70;21.10;;;;;;;;;;5051944;28;20021;-50
2024/01/23 14:10:28;;;;;;;21.42;18.02;;;;;;;;;;5052208;28;20891;-49
2024/01/23 14:12:55;;;;;;;31.55;18.85;;;;;;;;;;5052383;28;20033;-50
2024/01/23 14:15:21;;;;;;;23.05;19.85;;;;;;;;;;5052047;28;20040;-52
2024/01/23 14:17:51;;;;;;;24.55;18.98;;;;;;;;;;5051980;28;20033;-53